Time;durP1;ratioP1;P1;durP2;ratioP2;P2;SDS_P1;SDS_P2;PMS_P1;PMS_P2;Temp;Humidity;BMP_temperature;BMP_pressure;BME280_temperature;BME280_humidity;BME280_pressure;Samples;Min_cycle;Max_cycle;Signal;HPM_P1;HPM_P2
2021/09/18 00:02:28;;;;;;;;;;;;;;;;;;;;;
2021/09/18 00:05:37;;;;;;;11.30;7.80;;;;;;;25.00;49.79;100096.61;110374;1241;72319;-83
2021/09/18 00:08:26;;;;;;;11.00;8.00;;;;;;;24.99;49.70;100095.60;110573;1238;65325;-84
2021/09/18 00:11:31;;;;;;;;;;;;;;;;;;;;;
2021/09/18 00:14:26;;;;;;;13.40;8.40;;;;;;;24.99;49.87;100095.23;110699;1238;60261;-84
2021/09/18 00:17:12;;;;;;;10.40;8.00;;;;;;;24.99;49.84;100094.71;110792;1237;64485;-84
2021/09/18 00:20:58;;;;;;;11.30;9.40;;;;;;;24.99;49.92;100092.30;110784;1237;74978;-85
2021/09/18 00:23:41;;;;;;;11.50;8.20;;;;;;;24.99;49.83;100091.48;110788;1237;61109;-81
2021/09/18 00:26:47;;;;;;;9.60;8.30;;;;;;;24.99;49.82;100082.98;110729;1235;61618;-86
2021/09/18 00:29:38;;;;;;;;;;;;;;;;;;;;;
2021/09/18 00:32:49;;;;;;;10.80;8.30;;;;;;;24.99;49.94;100079.43;111097;1230;64957;-85
2021/09/18 00:35:48;;;;;;;;;;;;;;;;;;;;;
2021/09/18 00:39:01;;;;;;;10.30;7.70;;;;;;;24.97;49.94;100076.03;111375;1232;60336;-80
2021/09/18 00:41:47;;;;;;;12.40;8.90;;;;;;;24.97;49.87;100075.27;111543;1230;63652;-82
2021/09/18 00:44:53;;;;;;;10.30;7.30;;;;;;;24.97;49.85;100077.92;111275;1232;64334;-80
2021/09/18 00:47:30;;;;;;;10.10;7.80;;;;;;;24.97;49.92;100071.48;111443;1237;60092;-79
2021/09/18 00:50:05;;;;;;;10.40;8.90;;;;;;;24.98;49.99;100073.55;110815;1237;60264;-85
2021/09/18 00:53:16;;;;;;;10.00;8.70;;;;;;;24.98;49.93;100070.61;110819;1236;63815;-86
2021/09/18 00:56:08;;;;;;;11.80;9.20;;;;;;;24.98;49.99;100071.54;110805;1236;73872;-81
2021/09/18 00:59:14;;;;;;;;;;;;;;;;;;;;;
2021/09/18 01:02:03;;;;;;;11.30;8.90;;;;;;;24.99;50.01;100075.66;110688;1238;61552;-85
2021/09/18 01:05:30;;;;;;;;;;;;;;;;;;;;;
2021/09/18 01:08:37;;;;;;;11.20;9.00;;;;;;;24.98;50.07;100079.84;110847;1235;64397;-86
2021/09/18 01:11:36;;;;;;;11.80;9.10;;;;;;;24.98;50.24;100077.34;110984;1235;60425;-85
2021/09/18 01:14:44;;;;;;;12.70;9.40;;;;;;;24.98;50.12;100083.45;110828;1235;60180;-85
2021/09/18 01:17:39;;;;;;;;;;;;;;;24.98;50.33;100084.13;111303;1232;73850;-86
2021/09/18 01:20:50;;;;;;;10.70;8.60;;;;;;;24.96;50.43;100086.36;111501;1230;75234;-83
2021/09/18 01:23:48;;;;;;;11.60;9.40;;;;;;;24.97;50.50;100090.24;111667;1228;61219;-86
2021/09/18 01:26:57;;;;;;;15.10;9.50;;;;;;;24.97;50.47;100089.00;112297;1224;60158;-79
2021/09/18 01:30:01;;;;;;;;;;;;;;;;;;;;;
2021/09/18 01:33:16;;;;;;;;;;;;;;;;;;;;;
2021/09/18 01:36:33;;;;;;;12.60;8.50;;;;;;;24.96;50.63;100086.16;112188;1224;60220;-85
2021/09/18 01:39:32;;;;;;;;;;;;;;;;;;;;;
2021/09/18 01:42:04;;;;;;;12.40;9.80;;;;;;;24.97;50.68;100084.67;112072;1225;65101;-86
2021/09/18 01:45:15;;;;;;;10.20;8.90;;;;;;;24.97;50.77;100083.13;112074;1225;72448;-87
2021/09/18 01:48:42;;;;;;;12.70;9.50;;;;;;;24.97;50.68;100081.40;112060;1225;60385;-79
2021/09/18 01:51:38;;;;;;;13.10;9.70;;;;;;;24.97;50.90;100081.75;111815;1227;60781;-88
2021/09/18 01:54:37;;;;;;;14.90;9.30;;;;;;;24.97;50.88;100083.73;112081;1225;73420;-86
2021/09/18 01:57:49;;;;;;;12.60;9.40;;;;;;;24.97;50.84;100082.66;112127;1224;74667;-84
2021/09/18 02:00:59;;;;;;;12.60;9.80;;;;;;;24.97;50.94;100086.58;112120;1224;60387;-84
2021/09/18 02:03:57;;;;;;;14.10;10.00;;;;;;;24.96;51.03;100079.69;112047;1225;60372;-86
2021/09/18 02:06:43;;;;;;;12.40;9.50;;;;;;;24.97;50.83;100085.20;112023;1225;73525;-83
2021/09/18 02:09:50;;;;;;;13.10;9.40;;;;;;;24.97;51.08;100083.73;112044;1225;76467;-86
2021/09/18 02:12:59;;;;;;;13.20;9.40;;;;;;;24.97;51.03;100088.80;112076;1225;60253;-87
2021/09/18 02:15:54;;;;;;;12.90;9.20;;;;;;;24.97;51.10;100082.33;111876;1225;61027;-88
2021/09/18 02:18:38;;;;;;;12.40;9.90;;;;;;;24.96;51.16;100084.58;112087;1222;73594;-83
2021/09/18 02:21:43;;;;;;;;;;;;;;;;;;;;;
2021/09/18 02:24:50;;;;;;;13.60;9.30;;;;;;;24.96;51.07;100080.21;112505;1222;61084;-83
2021/09/18 02:28:09;;;;;;;;;;;;;;;;;;;;;
2021/09/18 02:31:14;;;;;;;;;;;;;;;;;;;;;
2021/09/18 02:34:03;;;;;;;11.50;8.90;;;;;;;24.96;51.14;100084.41;111286;1232;74717;-83
2021/09/18 02:37:11;;;;;;;13.70;9.40;;;;;;;24.96;51.16;100080.96;110799;1237;61046;-91
2021/09/18 02:40:08;;;;;;;10.80;8.90;;;;;;;24.96;51.14;100080.82;110797;1237;61173;-84
2021/09/18 02:43:29;;;;;;;;;;;;;;;;;;;;;
2021/09/18 02:46:35;;;;;;;;;;;;;;;;;;;;;
2021/09/18 02:49:31;;;;;;;12.50;8.80;;;;;;;24.93;51.10;100081.44;110553;1238;60994;-83
2021/09/18 02:52:52;;;;;;;13.00;9.10;;;;;;;24.93;51.29;100084.27;110626;1238;60972;-86
2021/09/18 02:55:52;;;;;;;12.40;9.10;;;;;;;24.93;51.17;100080.66;110619;1237;73105;-86
2021/09/18 02:59:18;;;;;;;10.70;8.20;;;;;;;24.93;51.03;100082.15;110632;1238;72466;-86
2021/09/18 03:02:01;;;;;;;11.30;8.70;;;;;;;24.93;51.10;100085.02;110822;1235;61027;-86
2021/09/18 03:05:10;;;;;;;13.20;9.10;;;;;;;24.94;51.08;100083.14;111152;1232;61120;-90
2021/09/18 03:08:20;;;;;;;11.90;8.80;;;;;;;24.94;51.17;100082.90;111408;1228;72858;-87
2021/09/18 03:11:28;;;;;;;13.10;8.50;;;;;;;24.94;51.03;100083.13;111643;1228;75128;-84
2021/09/18 03:14:26;;;;;;;14.10;9.40;;;;;;;24.94;51.06;100083.31;111786;1228;61125;-84
2021/09/18 03:17:32;;;;;;;;;;;;;;;24.94;51.29;100085.64;111808;1227;60963;-83
2021/09/18 03:20:48;;;;;;;12.50;8.10;;;;;;;24.91;51.08;100089.82;111242;1232;74014;-87
2021/09/18 03:23:58;;;;;;;12.60;8.60;;;;;;;24.93;51.03;100089.16;111262;1232;74296;-87
2021/09/18 03:27:07;;;;;;;12.20;8.50;;;;;;;24.92;51.01;100087.23;111409;1229;61093;-83
2021/09/18 03:30:29;;;;;;;11.00;7.90;;;;;;;24.92;51.03;100083.84;111732;1227;60978;-79
2021/09/18 03:33:29;;;;;;;11.60;8.10;;;;;;;24.92;51.01;100079.48;111685;1228;73508;-85
2021/09/18 03:36:29;;;;;;;;;;;;;;;;;;;;;
2021/09/18 03:43:02;;;;;;;11.80;8.50;;;;;;;24.93;50.95;100070.30;111111;1234;61125;-86
2021/09/18 03:46:09;;;;;;;;;;;;;;;24.93;50.94;100073.50;110891;1235;72232;-84
2021/09/18 03:49:04;;;;;;;14.60;8.30;;;;;;;24.91;51.08;100071.15;111080;1233;75534;-80
2021/09/18 03:51:56;;;;;;;12.30;8.40;;;;;;;24.92;50.91;100073.97;110984;1235;61241;-84
2021/09/18 03:54:50;;;;;;;12.70;8.40;;;;;;;24.92;50.89;100074.84;110989;1235;61394;-83
2021/09/18 03:57:55;;;;;;;10.80;8.00;;;;;;;24.92;51.06;100075.91;110883;1234;72395;-85
2021/09/18 04:01:37;;;;;;;10.70;7.70;;;;;;;24.92;50.90;100075.05;110777;1235;74459;-89
2021/09/18 04:04:34;;;;;;;9.40;7.40;;;;;;;24.92;50.92;100073.09;110772;1235;61778;-87
2021/09/18 04:07:11;;;;;;;9.00;7.80;;;;;;;24.92;50.79;100070.19;110824;1235;61025;-82
2021/09/18 04:10:20;;;;;;;10.40;7.50;;;;;;;24.92;50.80;100069.08;111026;1233;73458;-83
2021/09/18 04:13:24;;;;;;;12.90;7.90;;;;;;;24.91;50.99;100071.66;111170;1233;67036;-81
2021/09/18 04:16:23;;;;;;;11.00;8.30;;;;;;;24.92;50.95;100078.06;111259;1231;61077;-86
2021/09/18 04:19:30;;;;;;;9.60;7.80;;;;;;;24.93;50.67;100081.38;111749;1228;60969;-83
2021/09/18 04:22:23;;;;;;;12.60;7.50;;;;;;;24.94;50.59;100080.09;112011;1226;73456;-85
2021/09/18 04:25:30;;;;;;;12.70;8.00;;;;;;;24.95;50.73;100079.14;112130;1225;74361;-90
2021/09/18 04:28:19;;;;;;;;;;;;;;;;;;;;;
2021/09/18 04:31:35;;;;;;;10.90;7.70;;;;;;;24.94;50.72;100072.33;112530;1219;61005;-85
2021/09/18 04:35:03;;;;;;;;;;;;;;;;;;;;;
2021/09/18 04:38:16;;;;;;;10.10;7.60;;;;;;;24.95;50.72;100069.04;112891;1219;74403;-92
2021/09/18 04:41:31;;;;;;;;;;;;;;;;;;;;;
2021/09/18 04:44:08;;;;;;;11.50;7.70;;;;;;;24.95;50.60;100068.13;112516;1222;61020;-88
2021/09/18 04:47:33;;;;;;;11.00;7.60;;;;;;;24.95;50.51;100068.60;112516;1222;73478;-87
2021/09/18 04:50:22;;;;;;;9.90;7.30;;;;;;;24.96;50.69;100074.52;112079;1226;74865;-84
2021/09/18 04:53:28;;;;;;;11.70;7.50;;;;;;;24.96;50.53;100074.25;112108;1225;61116;-88
2021/09/18 04:56:16;;;;;;;11.60;7.20;;;;;;;24.96;50.45;100075.02;111801;1228;60992;-87
2021/09/18 04:59:23;;;;;;;10.60;7.30;;;;;;;24.96;50.49;100075.20;111800;1228;63829;-83
2021/09/18 05:02:29;;;;;;;9.20;6.90;;;;;;;24.96;50.53;100080.06;111809;1228;66915;-82
2021/09/18 05:05:35;;;;;;;11.70;7.50;;;;;;;24.96;50.48;100076.10;111710;1228;60998;-86
2021/09/18 05:08:40;;;;;;;9.80;7.10;;;;;;;24.96;50.48;100073.06;111263;1232;61103;-84
2021/09/18 05:11:49;;;;;;;11.00;7.60;;;;;;;24.96;50.47;100071.21;111285;1216;63809;-82
2021/09/18 05:14:34;;;;;;;9.80;7.20;;;;;;;24.97;50.44;100070.44;111286;1231;74474;-81
2021/09/18 05:17:54;;;;;;;9.00;6.90;;;;;;;24.97;50.45;100076.02;111356;1230;60980;-85
2021/09/18 05:21:11;;;;;;;;;;;;;;;;;;;;;
2021/09/18 05:24:15;;;;;;;9.50;7.10;;;;;;;24.97;50.37;100081.61;111793;1228;63745;-85
2021/09/18 05:27:32;;;;;;;10.10;7.00;;;;;;;24.98;50.38;100081.84;111867;1225;74507;-82
2021/09/18 05:30:17;;;;;;;12.90;7.10;;;;;;;24.97;50.46;100079.83;112133;1225;61279;-86
2021/09/18 05:33:06;;;;;;;11.30;6.60;;;;;;;24.97;50.26;100080.66;112231;1222;61026;-89
2021/09/18 05:36:13;;;;;;;;;;;;;;;24.97;50.37;100083.38;112158;1225;63741;-79
2021/09/18 05:39:39;;;;;;;10.70;7.10;;;;;;;24.95;50.44;100082.27;112300;1224;73178;-83
2021/09/18 05:42:38;;;;;;;;;;;;;;;;;;;;;
2021/09/18 05:45:50;;;;;;;11.10;7.10;;;;;;;24.96;50.38;100097.69;111906;1226;61003;-86
2021/09/18 05:49:00;;;;;;;8.60;6.00;;;;;;;24.97;50.41;100093.59;112129;1225;71511;-82
2021/09/18 05:52:05;;;;;;;8.90;6.50;;;;;;;24.97;50.26;100094.16;111879;1227;75503;-83
2021/09/18 05:54:58;;;;;;;;;;;;;;;;;;;;;
2021/09/18 05:58:04;;;;;;;9.20;6.70;;;;;;;24.99;50.52;100097.77;111860;1227;61555;-83
2021/09/18 06:01:20;;;;;;;;;;;;;;;;;;;;;
2021/09/18 06:04:54;;;;;;;;;;;;;;;;;;;;;
2021/09/18 06:08:04;;;;;;;9.60;6.10;;;;;;;24.99;50.34;100090.38;111285;1232;60859;-85
2021/09/18 06:11:09;;;;;;;10.80;6.70;;;;;;;24.99;50.36;100091.42;110837;1235;61209;-86
2021/09/18 06:14:10;;;;;;;7.60;6.00;;;;;;;25.00;50.22;100092.05;111149;1232;63887;-84
2021/09/18 06:17:27;;;;;;;12.20;6.30;;;;;;;25.01;50.31;100091.10;111387;1232;65465;-86
2021/09/18 06:20:37;;;;;;;;;;;;;;;;;;;;;
2021/09/18 06:23:33;;;;;;;9.50;5.80;;;;;;;25.01;50.30;100104.00;111301;1232;61185;-86
2021/09/18 06:26:32;;;;;;;;;;;;;;;;;;;;;
2021/09/18 06:29:29;;;;;;;7.90;5.90;;;;;;;25.02;50.19;100112.70;110776;1235;74293;-84
2021/09/18 06:32:38;;;;;;;8.20;5.90;;;;;;;25.03;50.23;100111.25;110643;1237;61109;-89
2021/09/18 06:35:45;;;;;;;;;;;;;;;25.03;50.17;100120.94;110683;1237;61004;-86
2021/09/18 06:38:30;;;;;;;9.90;5.60;;;;;;;25.02;50.26;100125.55;110988;1234;64955;-85
2021/09/18 06:41:49;;;;;;;;;;;;;;;;;;;;;
2021/09/18 06:44:48;;;;;;;;;;;;;;;;;;;;;
2021/09/18 06:47:58;;;;;;;8.50;5.60;;;;;;;25.01;50.23;100127.77;111195;1232;60925;-86
2021/09/18 06:51:15;;;;;;;7.60;5.60;;;;;;;25.01;50.17;100123.62;111029;1235;65534;-84
2021/09/18 06:53:59;;;;;;;11.30;5.50;;;;;;;25.02;50.21;100125.15;110858;1235;75478;-88
2021/09/18 06:57:12;;;;;;;7.30;5.90;;;;;;;25.02;50.20;100122.08;110834;1235;61747;-83
2021/09/18 07:00:07;;;;;;;8.60;6.00;;;;;;;25.02;50.22;100122.34;111033;1235;61063;-84
2021/09/18 07:03:10;;;;;;;8.10;5.70;;;;;;;25.02;50.16;100128.75;110999;1235;63819;-87
2021/09/18 07:06:38;;;;;;;8.30;5.80;;;;;;;25.03;50.10;100131.20;110865;1235;73320;-86
2021/09/18 07:09:36;;;;;;;;;;;;;;;;;;;;;
2021/09/18 07:12:26;;;;;;;8.80;5.60;;;;;;;25.03;50.33;100131.33;111054;1234;61074;-87
2021/09/18 07:15:45;;;;;;;8.50;5.80;;;;;;;25.04;50.15;100136.67;110774;1236;71211;-79
2021/09/18 07:18:44;;;;;;;10.30;6.00;;;;;;;25.04;50.22;100143.70;110803;1236;66505;-78
2021/09/18 07:22:03;;;;;;;9.00;5.80;;;;;;;25.04;50.22;100145.68;110661;1238;61070;-84
2021/09/18 07:24:49;;;;;;;8.40;5.30;;;;;;;25.05;50.22;100144.17;110615;1238;61090;-84
2021/09/18 07:28:05;;;;;;;;;;;;;;;;;;;;;
2021/09/18 07:31:05;;;;;;;;;;;;;;;;;;;;;
2021/09/18 07:34:08;;;;;;;6.10;4.80;;;;;;;25.05;50.04;100141.04;110717;1237;60881;-79
2021/09/18 07:37:27;;;;;;;;;;;;;;;;;;;;;
2021/09/18 07:40:27;;;;;;;;;;;;;;;;;;;;;
2021/09/18 07:43:13;;;;;;;7.40;5.70;;;;;;;25.07;50.35;100134.41;111298;1235;75550;-85
2021/09/18 07:46:08;;;;;;;8.30;5.10;;;;;;;25.08;50.26;100131.25;110821;1235;61084;-84
2021/09/18 07:49:17;;;;;;;7.80;5.80;;;;;;;25.09;50.09;100133.63;110720;1236;60983;-86
2021/09/18 07:52:23;;;;;;;7.40;5.90;;;;;;;25.10;50.22;100133.60;110789;1236;72455;-82
2021/09/18 07:55:32;;;;;;;7.60;5.70;;;;;;;25.11;50.19;100137.79;110553;1238;73833;-86
2021/09/18 07:58:40;;;;;;;7.50;5.90;;;;;;;25.12;50.27;100136.64;110241;1243;61012;-90
2021/09/18 08:01:30;;;;;;;;;;;;;;;25.12;50.17;100134.66;110075;1244;61393;-89
2021/09/18 08:04:28;;;;;;;7.00;5.50;;;;;;;25.11;50.14;100134.75;110085;1244;73416;-86
2021/09/18 08:07:34;;;;;;;;;;;;;;;;;;;;;
2021/09/18 08:10:41;;;;;;;7.90;5.40;;;;;;;25.12;50.17;100134.63;110177;1241;61142;-83
2021/09/18 08:13:47;;;;;;;6.80;5.50;;;;;;;25.13;50.23;100142.27;110520;1240;61259;-79
2021/09/18 08:16:43;;;;;;;;;;;;;;;;;;;;;
2021/09/18 08:19:39;;;;;;;7.60;5.40;;;;;;;25.15;50.12;100139.09;110523;1240;75084;-89
2021/09/18 08:22:53;;;;;;;7.60;5.10;;;;;;;25.14;50.15;100140.73;110543;1241;61303;-83
2021/09/18 08:26:29;;;;;;;8.30;5.60;;;;;;;25.14;50.22;100134.92;110578;1238;61154;-85
2021/09/18 08:29:09;;;;;;;6.50;5.10;;;;;;;25.16;50.22;100138.96;110554;1238;73989;-85
2021/09/18 08:31:59;;;;;;;7.20;5.50;;;;;;;25.16;50.15;100139.64;110650;1236;65999;-83
2021/09/18 08:34:53;;;;;;;6.70;5.10;;;;;;;25.17;50.22;100140.25;110965;1232;60962;-84
2021/09/18 08:38:23;;;;;;;7.10;5.40;;;;;;;25.18;50.10;100147.05;111380;1229;61007;-87
2021/09/18 08:41:20;;;;;;;7.70;5.00;;;;;;;25.17;50.06;100151.90;111554;1230;72525;-83
2021/09/18 08:44:45;;;;;;;6.50;4.90;;;;;;;25.17;50.12;100154.27;111249;1232;66837;-84
2021/09/18 08:47:24;;;;;;;6.60;5.20;;;;;;;25.19;50.01;100159.72;111019;1235;61012;-84
2021/09/18 08:50:24;;;;;;;7.40;5.40;;;;;;;25.19;50.02;100159.12;110803;1235;61019;-90
2021/09/18 08:53:19;;;;;;;6.30;4.70;;;;;;;25.19;49.95;100165.27;110907;1232;72480;-88
2021/09/18 08:56:23;;;;;;;6.00;4.90;;;;;;;25.19;50.21;100159.67;111294;1232;75903;-89
2021/09/18 08:59:41;;;;;;;6.90;5.10;;;;;;;25.20;49.92;100164.86;111332;1230;61232;-86
2021/09/18 09:02:40;;;;;;;;;;;;;;;;;;;;;
2021/09/18 09:05:38;;;;;;;7.10;4.70;;;;;;;25.19;49.95;100173.59;111174;1232;73510;-82
2021/09/18 09:08:45;;;;;;;;;;;;;;;;;;;;;
2021/09/18 09:11:48;;;;;;;;;;;;;;;;;;;;;
2021/09/18 09:14:53;;;;;;;6.80;5.20;;;;;;;25.19;49.91;100161.25;111267;1230;61127;-86
2021/09/18 09:18:00;;;;;;;7.60;5.10;;;;;;;25.19;49.96;100158.74;111474;1230;72465;-86
2021/09/18 09:21:17;;;;;;;;;;;;;;;;;;;;;
2021/09/18 09:24:35;;;;;;;6.50;4.90;;;;;;;25.19;49.86;100154.12;112385;1222;61160;-85
2021/09/18 09:27:38;;;;;;;6.30;4.80;;;;;;;25.18;50.06;100154.34;112511;1221;60932;-83
2021/09/18 09:30:40;;;;;;;6.50;4.90;;;;;;;25.19;50.02;100148.52;112580;1221;72659;-86
2021/09/18 09:33:47;;;;;;;;;;;;;;;;;;;;;
2021/09/18 09:37:24;;;;;;;6.90;4.80;;;;;;;25.19;50.00;100148.88;112371;1222;60985;-89
2021/09/18 09:40:30;;;;;;;6.00;4.60;;;;;;;25.18;50.01;100149.88;112576;1220;60994;-90
2021/09/18 09:43:16;;;;;;;;;;;;;;;;;;;;;
2021/09/18 09:46:15;;;;;;;;;;;;;;;;;;;;;
2021/09/18 09:49:31;;;;;;;6.50;4.60;;;;;;;25.18;49.96;100140.50;112394;1224;60929;-83
2021/09/18 09:52:19;;;;;;;;;;;;;;;25.18;49.86;100140.87;112564;1223;61045;-89
2021/09/18 09:55:58;;;;;;;6.30;4.70;;;;;;;25.17;49.89;100137.05;112525;1221;63817;-82
2021/09/18 09:59:15;;;;;;;6.20;4.60;;;;;;;25.16;49.99;100138.52;112115;1226;66302;-85
2021/09/18 10:02:12;;;;;;;5.60;4.00;;;;;;;25.16;50.09;100142.69;111644;1229;61172;-92
2021/09/18 10:05:21;;;;;;;6.50;4.40;;;;;;;25.17;49.96;100146.98;111633;1228;61080;-84
2021/09/18 10:08:15;;;;;;;5.60;4.40;;;;;;;25.17;49.99;100145.66;111556;1229;72033;-85
2021/09/18 10:11:01;;;;;;;5.70;4.10;;;;;;;25.17;50.05;100139.24;111511;1231;65657;-86
2021/09/18 10:13:57;;;;;;;;;;;;;;;;;;;;;
2021/09/18 10:16:58;;;;;;;6.20;4.50;;;;;;;25.16;49.91;100138.69;111456;1229;60926;-84
2021/09/18 10:26:04;;;;;;;6.90;4.10;;;;;;;25.16;50.00;100139.77;111533;1231;61116;-86
2021/09/18 10:29:13;;;;;;;;;;;;;;;;;;;;;
2021/09/18 10:32:01;;;;;;;5.90;4.00;;;;;;;25.16;50.01;100129.95;111516;1230;64028;-83
2021/09/18 10:35:41;;;;;;;;;;;;;;;;;;;;;
2021/09/18 10:38:37;;;;;;;5.30;3.80;;;;;;;25.16;49.98;100131.23;112244;1224;61012;-82
2021/09/18 10:42:10;;;;;;;4.70;3.80;;;;;;;25.15;49.91;100117.95;112310;1224;61175;-82
2021/09/18 10:45:27;;;;;;;4.40;3.80;;;;;;;25.15;49.95;100113.97;112308;1224;64661;-82
2021/09/18 10:48:42;;;;;;;;;;;;;;;;;;;;;
2021/09/18 10:51:59;;;;;;;;;;;;;;;;;;;;;
2021/09/18 10:55:23;;;;;;;4.80;3.80;;;;;;;25.15;49.94;100115.45;112071;1225;60977;-81
2021/09/18 10:58:29;;;;;;;6.40;3.90;;;;;;;25.14;49.78;100119.64;111723;1228;64836;-83
2021/09/18 11:01:22;;;;;;;5.40;4.20;;;;;;;25.15;49.91;100122.28;112127;1224;78091;-79
2021/09/18 11:08:03;;;;;;;5.40;3.70;;;;;;;25.14;49.99;100115.88;111886;1229;61230;-81
2021/09/18 11:11:28;;;;;;;;;;;;;;;;;;;;;
2021/09/18 11:14:49;;;;;;;5.40;3.70;;;;;;;25.14;49.95;100125.98;111665;1225;65143;-81
2021/09/18 11:18:03;;;;;;;5.10;3.80;;;;;;;25.14;49.75;100123.41;112134;1225;60941;-83
2021/09/18 11:21:23;;;;;;;5.30;3.60;;;;;;;25.14;49.88;100125.23;112123;1225;61190;-87
2021/09/18 11:24:35;;;;;;;5.40;3.80;;;;;;;25.14;49.73;100120.53;111917;1225;64067;-81
2021/09/18 11:27:34;;;;;;;4.80;3.70;;;;;;;25.15;49.76;100116.93;112106;1225;67274;-86
2021/09/18 11:30:33;;;;;;;;;;;;;;;;;;;;;
2021/09/18 11:33:54;;;;;;;6.00;3.80;;;;;;;25.14;49.83;100120.71;112470;1222;61144;-84
2021/09/18 11:36:57;;;;;;;;;;;;;;;;;;;;;
2021/09/18 11:40:28;;;;;;;5.10;3.60;;;;;;;25.14;49.84;100112.30;111550;1230;65575;-80
2021/09/18 11:43:46;;;;;;;5.90;4.00;;;;;;;25.14;49.83;100111.25;111653;1230;61015;-84
2021/09/18 11:46:34;;;;;;;4.40;3.50;;;;;;;25.14;49.89;100106.20;111446;1231;61058;-84
2021/09/18 11:49:50;;;;;;;5.30;3.20;;;;;;;25.15;49.74;100112.61;111369;1231;71327;-81
2021/09/18 11:52:51;;;;;;;5.40;3.20;;;;;;;25.14;49.68;100106.33;111448;1228;66850;-81
2021/09/18 11:55:53;;;;;;;4.50;3.40;;;;;;;25.15;49.65;100110.08;111675;1228;60936;-84
2021/09/18 11:58:35;;;;;;;4.30;3.30;;;;;;;25.15;49.60;100110.19;111418;1228;61281;-82
2021/09/18 12:02:07;;;;;;;5.80;3.50;;;;;;;25.16;49.59;100112.33;111574;1227;71449;-83
2021/09/18 12:04:59;;;;;;;4.20;3.20;;;;;;;25.16;49.62;100116.81;111739;1225;65829;-81
2021/09/18 12:07:48;;;;;;;4.70;3.30;;;;;;;25.16;49.61;100115.48;111874;1226;61003;-81
2021/09/18 12:10:33;;;;;;;4.70;3.60;;;;;;;25.17;49.63;100118.81;112006;1222;61277;-81
2021/09/18 12:13:40;;;;;;;4.50;3.20;;;;;;;25.17;49.48;100118.23;112490;1219;62674;-81
2021/09/18 12:16:36;;;;;;;5.10;3.30;;;;;;;25.18;49.41;100106.30;112642;1216;77123;-81
2021/09/18 12:19:22;;;;;;;5.40;3.40;;;;;;;25.18;49.43;100108.35;113074;1214;60962;-79
2021/09/18 12:22:11;;;;;;;;;;;;;;;25.18;49.38;100110.98;112913;1215;60997;-81
2021/09/18 12:25:05;;;;;;;;;;;;;;;;;;;;;
2021/09/18 12:28:01;;;;;;;4.50;3.20;;;;;;;25.17;49.33;100099.23;113263;1209;65970;-87
2021/09/18 12:31:46;;;;;;;;;;;;;;;;;;;;;
2021/09/18 12:34:40;;;;;;;4.90;3.30;;;;;;;25.17;49.23;100093.46;113340;1209;60869;-86
2021/09/18 12:37:26;;;;;;;4.30;3.30;;;;;;;25.17;49.26;100097.01;113311;1209;63801;-83
2021/09/18 12:40:49;;;;;;;;;;;;;;;;;;;;;
2021/09/18 12:43:43;;;;;;;;;;;;;;;;;;;;;
2021/09/18 12:47:00;;;;;;;4.80;3.50;;;;;;;25.17;49.22;100091.06;113467;1206;60965;-89
2021/09/18 12:49:42;;;;;;;5.20;3.50;;;;;;;25.18;49.25;100085.99;113616;1208;65043;-81
2021/09/18 12:53:12;;;;;;;5.10;3.30;;;;;;;25.17;49.15;100088.52;113550;1206;67083;-84
2021/09/18 12:56:15;;;;;;;4.80;3.20;;;;;;;25.18;49.00;100086.84;113586;1206;60962;-85
2021/09/18 12:59:44;;;;;;;3.90;3.00;;;;;;;25.19;49.01;100087.16;113109;1214;61240;-85
2021/09/18 13:02:53;;;;;;;4.30;3.00;;;;;;;25.18;49.01;100078.58;112852;1221;62728;-84
2021/09/18 13:05:48;;;;;;;4.30;2.70;;;;;;;25.18;48.92;100078.95;112510;1222;66534;-89
2021/09/18 13:08:56;;;;;;;4.10;2.70;;;;;;;25.18;48.84;100074.94;112561;1222;60937;-85
2021/09/18 13:11:55;;;;;;;4.50;2.80;;;;;;;25.19;48.64;100081.23;112235;1224;61180;-88
2021/09/18 13:14:59;;;;;;;4.40;2.70;;;;;;;25.19;48.57;100081.54;111887;1228;63783;-86
2021/09/18 13:17:54;;;;;;;4.20;2.70;;;;;;;25.19;48.44;100080.25;111856;1227;66398;-88
2021/09/18 13:21:01;;;;;;;;;;;;;;;;;;;;;
2021/09/18 13:24:15;;;;;;;4.70;3.00;;;;;;;25.19;48.21;100082.21;111122;1235;60930;-85
2021/09/18 13:27:03;;;;;;;3.70;2.80;;;;;;;25.20;48.05;100072.65;110774;1237;73845;-84
2021/09/18 13:29:54;;;;;;;4.80;2.80;;;;;;;25.20;48.03;100077.48;110771;1238;75660;-85
2021/09/18 13:32:56;;;;;;;3.80;2.60;;;;;;;25.20;48.04;100073.33;110802;1237;60975;-89
2021/09/18 13:35:56;;;;;;;4.40;2.60;;;;;;;25.20;47.85;100070.77;110884;1233;60947;-84
2021/09/18 13:38:48;;;;;;;4.60;2.70;;;;;;;25.21;47.56;100067.48;111219;1232;73405;-85
2021/09/18 13:41:56;;;;;;;3.80;2.60;;;;;;;25.21;47.51;100067.07;111892;1228;75692;-86
2021/09/18 13:44:45;;;;;;;3.70;2.50;;;;;;;25.22;47.25;100068.83;112060;1226;61054;-90
2021/09/18 13:47:43;;;;;;;7.20;2.50;;;;;;;25.22;47.17;100072.44;111742;1228;61053;-82
2021/09/18 13:50:35;;;;;;;4.50;2.90;;;;;;;25.22;47.02;100071.14;112083;1225;63313;-80
2021/09/18 13:53:41;;;;;;;;;;;;;;;;;;;;;
2021/09/18 13:56:41;;;;;;;3.70;2.50;;;;;;;25.22;46.84;100065.35;111876;1229;61166;-84
2021/09/18 13:59:40;;;;;;;;;;;;;;;;;;;;;
2021/09/18 14:03:01;;;;;;;4.90;2.60;;;;;;;25.22;46.67;100065.16;112184;1224;63744;-85
2021/09/18 14:05:52;;;;;;;3.70;2.60;;;;;;;25.23;46.59;100061.52;112008;1227;65860;-86
2021/09/18 14:08:51;;;;;;;;;;;;;;;;;;;;;
2021/09/18 14:11:48;;;;;;;;;;;;;;;;;;;;;
2021/09/18 14:14:54;;;;;;;4.50;2.90;;;;;;;25.23;46.33;100055.02;111721;1229;63921;-83
2021/09/18 14:18:20;;;;;;;4.30;2.70;;;;;;;25.23;46.64;100059.90;111282;1232;74498;-82
2021/09/18 14:21:06;;;;;;;4.10;2.70;;;;;;;25.22;46.70;100061.91;111457;1231;61015;-81
2021/09/18 14:24:33;;;;;;;5.00;2.80;;;;;;;25.23;46.72;100056.66;110854;1235;61097;-85
2021/09/18 14:27:19;;;;;;;4.60;3.10;;;;;;;25.23;46.62;100056.48;110762;1237;63717;-81
2021/09/18 14:30:38;;;;;;;4.50;3.10;;;;;;;25.23;46.83;100058.78;110776;1235;75489;-88
2021/09/18 14:33:45;;;;;;;4.50;2.80;;;;;;;25.23;46.62;100062.63;110894;1234;61361;-83
2021/09/18 14:36:23;;;;;;;;;;;;;;;;;;;;;
2021/09/18 14:39:26;;;;;;;4.90;3.00;;;;;;;25.23;46.80;100063.14;111120;1232;72627;-83
2021/09/18 14:42:15;;;;;;;4.40;3.40;;;;;;;25.23;46.92;100064.79;111173;1231;74955;-83
2021/09/18 14:45:09;;;;;;;4.00;2.80;;;;;;;25.22;46.97;100066.61;111496;1230;61004;-81
2021/09/18 14:48:21;;;;;;;5.10;3.10;;;;;;;25.22;47.12;100071.10;111644;1226;61055;-86
2021/09/18 14:51:39;;;;;;;4.10;2.80;;;;;;;25.21;47.18;100073.55;112261;1223;62598;-81
2021/09/18 14:54:24;;;;;;;3.90;2.80;;;;;;;25.21;47.18;100080.23;112258;1222;65835;-81
2021/09/18 14:57:03;;;;;;;4.10;2.90;;;;;;;25.22;47.29;100081.26;112248;1224;61435;-81
2021/09/18 14:59:52;;;;;;;3.80;2.70;;;;;;;25.22;47.39;100078.52;112563;1219;61007;-81
2021/09/18 15:02:38;;;;;;;4.00;2.80;;;;;;;25.22;47.53;100082.13;112887;1214;72738;-81
2021/09/18 15:05:24;;;;;;;4.60;3.10;;;;;;;25.22;47.54;100084.61;112799;1215;74708;-81
2021/09/18 15:08:10;;;;;;;4.30;3.00;;;;;;;25.23;47.43;100086.55;113015;1215;61714;-85
2021/09/18 15:11:12;;;;;;;4.20;3.00;;;;;;;25.22;47.52;100087.74;112782;1219;60943;-81
2021/09/18 15:14:08;;;;;;;5.90;2.80;;;;;;;25.22;47.59;100095.45;112769;1216;71716;-84
2021/09/18 15:17:15;;;;;;;3.70;2.90;;;;;;;25.22;47.69;100094.95;113076;1216;67258;-85
2021/09/18 15:20:00;;;;;;;4.10;2.70;;;;;;;25.21;47.56;100100.23;113032;1216;60995;-82
2021/09/18 15:23:02;;;;;;;5.40;3.10;;;;;;;25.21;47.55;100098.43;113106;1215;61989;-85
2021/09/18 15:25:59;;;;;;;5.90;3.00;;;;;;;25.21;47.59;100104.23;113057;1215;73341;-84
2021/09/18 15:28:48;;;;;;;4.10;2.80;;;;;;;25.20;47.45;100112.37;113059;1215;73851;-84
2021/09/18 15:31:53;;;;;;;3.90;2.90;;;;;;;25.20;47.57;100119.96;113004;1218;61033;-83
2021/09/18 15:34:47;;;;;;;4.20;2.90;;;;;;;25.19;47.63;100120.94;113006;1218;61067;-81
2021/09/18 15:37:32;;;;;;;4.90;2.70;;;;;;;25.19;47.57;100122.73;112640;1221;72609;-85
2021/09/18 15:40:29;;;;;;;4.10;2.90;;;;;;;25.19;47.64;100126.87;112541;1222;66669;-82
2021/09/18 15:43:43;;;;;;;;;;;;;;;;;;;;;
2021/09/18 15:46:32;;;;;;;4.50;3.10;;;;;;;25.19;47.58;100140.58;112557;1224;61141;-82
2021/09/18 15:49:10;;;;;;;3.60;2.70;;;;;;;25.19;47.48;100143.65;112022;1225;63662;-82
2021/09/18 15:52:18;;;;;;;3.60;2.90;;;;;;;25.20;47.50;100149.90;111844;1225;76299;-84